createdAt,value
2018-12-02T00:00:05.821Z,5.3
2018-12-02T00:00:13.483Z,4.8
2018-12-02T00:00:20.196Z,5.6
2018-12-02T00:00:26.964Z,5.8
2018-12-02T00:00:33.722Z,5.3
2018-12-02T00:00:41.514Z,5.3
2018-12-02T00:00:49.232Z,4.9
2018-12-02T00:00:56.946Z,4.1
2018-12-02T00:01:03.696Z,3.9
2018-12-02T00:01:10.455Z,4.2
2018-12-02T00:01:17.227Z,3.9
2018-12-02T00:01:23.917Z,5.1
2018-12-02T00:01:30.651Z,6.1
2018-12-02T00:01:37.354Z,6.3
2018-12-02T00:01:44.055Z,6.4
2018-12-02T00:01:50.777Z,6.3
2018-12-02T00:01:57.435Z,5.9
2018-12-02T00:02:04.160Z,4.9
2018-12-02T00:02:10.839Z,4.9
2018-12-02T00:02:17.475Z,4.9
2018-12-02T00:02:24.183Z,4.4
2018-12-02T00:02:31.933Z,5.2
2018-12-02T00:02:38.608Z,5.7
2018-12-02T00:02:45.287Z,5.3
2018-12-02T00:02:51.960Z,5
2018-12-02T00:02:58.651Z,4.9
2018-12-02T00:03:05.345Z,4.6
2018-12-02T00:03:12.004Z,5.2
2018-12-02T00:03:18.677Z,5.1
2018-12-02T00:03:25.357Z,5.1
2018-12-02T00:03:32.032Z,5.1
2018-12-02T00:03:38.702Z,4.6
2018-12-02T00:03:45.357Z,4.9
2018-12-02T00:03:52.044Z,5.1
2018-12-02T00:03:58.717Z,4.9
2018-12-02T00:04:05.565Z,4.5
2018-12-02T00:04:12.347Z,4
2018-12-02T00:04:19.032Z,4
2018-12-02T00:04:25.752Z,3.8
2018-12-02T00:04:33.488Z,4.4
2018-12-02T00:04:40.190Z,4.7
2018-12-02T00:04:47.886Z,4.9
2018-12-02T00:04:54.637Z,4.8
2018-12-02T00:05:01.349Z,4.5
2018-12-02T00:05:08.119Z,4.5
2018-12-02T00:05:15.924Z,4.4
2018-12-02T00:05:22.610Z,4.8
2018-12-02T00:05:29.257Z,5.4
2018-12-02T00:05:35.960Z,4.9
2018-12-02T00:05:42.648Z,5.1
2018-12-02T00:05:49.395Z,5.5
2018-12-02T00:05:56.038Z,5.5
2018-12-02T00:06:02.733Z,5.6
2018-12-02T00:06:09.430Z,5.7
2018-12-02T00:06:16.069Z,5.3
2018-12-02T00:06:22.697Z,5
2018-12-02T00:06:29.453Z,4.6
2018-12-02T00:06:36.092Z,5.3
2018-12-02T00:06:42.763Z,5.4
2018-12-02T00:06:49.453Z,5.6
2018-12-02T00:06:56.141Z,6
2018-12-02T00:07:02.796Z,5.3
2018-12-02T00:07:10.472Z,5.2
2018-12-02T00:07:17.131Z,6.2
2018-12-02T00:07:24.851Z,5.8
2018-12-02T00:07:31.543Z,5.8
2018-12-02T00:07:38.250Z,5.9
2018-12-02T00:07:45.963Z,5.3
2018-12-02T00:07:52.665Z,5.1
2018-12-02T00:07:59.377Z,4.9
2018-12-02T00:08:06.118Z,5
2018-12-02T00:08:12.860Z,5.2
2018-12-02T00:08:20.616Z,5
2018-12-02T00:08:28.332Z,5.1
2018-12-02T00:08:35.106Z,4.9
2018-12-02T00:08:41.876Z,4.9
2018-12-02T00:08:48.603Z,5.5
2018-12-02T00:08:55.257Z,6
2018-12-02T00:09:01.955Z,6.2
2018-12-02T00:09:08.662Z,6.6
2018-12-02T00:09:15.333Z,6.5
2018-12-02T00:09:23.021Z,5.4
2018-12-02T00:09:29.691Z,5.3
2018-12-02T00:09:37.365Z,6.3
2018-12-02T00:09:44.095Z,6.2
2018-12-02T00:09:50.758Z,5.6
2018-12-02T00:09:58.416Z,6.3
2018-12-02T00:10:06.098Z,6
2018-12-02T00:10:12.751Z,5.8
2018-12-02T00:10:20.403Z,5.9
2018-12-02T00:10:27.047Z,5
2018-12-02T00:10:33.685Z,4.8
2018-12-02T00:10:40.390Z,5.3
2018-12-02T00:10:47.087Z,5.4
2018-12-02T00:10:53.751Z,6.2
2018-12-02T00:11:00.476Z,7.3
2018-12-02T00:11:07.169Z,7.6
2018-12-02T00:11:13.824Z,7.5
2018-12-02T00:11:20.483Z,7.3
2018-12-02T00:11:27.194Z,6.5
2018-12-02T00:11:33.852Z,5.5
2018-12-02T00:11:40.541Z,5.4
2018-12-02T00:11:47.278Z,5.8
2018-12-02T00:11:55.026Z,5.8
2018-12-02T00:12:01.723Z,6.5
2018-12-02T00:12:08.449Z,6.9
2018-12-02T00:12:15.176Z,7.3
2018-12-02T00:12:21.979Z,7
2018-12-02T00:12:29.804Z,7.5
2018-12-02T00:12:36.494Z,7
2018-12-02T00:12:44.137Z,6.7
2018-12-02T00:12:51.787Z,7.7
2018-12-02T00:12:58.464Z,7.1
2018-12-02T00:13:05.138Z,9.1
2018-12-02T00:13:11.835Z,8.5
2018-12-02T00:13:18.503Z,7.9
2018-12-02T00:13:25.165Z,9.6
2018-12-02T00:13:31.842Z,8.5
2018-12-02T00:13:39.496Z,9.9
2018-12-02T00:13:46.158Z,10.3
2018-12-02T00:13:52.838Z,8.8
2018-12-02T00:13:59.501Z,8.2
2018-12-02T00:14:06.155Z,7.5
2018-12-02T00:14:12.827Z,6.2
2018-12-02T00:14:19.494Z,6.8
2018-12-02T00:14:26.189Z,7.2
2018-12-02T00:14:32.844Z,7
2018-12-02T00:14:39.515Z,6.1
2018-12-02T00:14:46.235Z,6.7
2018-12-02T00:14:54.043Z,6.1
2018-12-02T00:15:00.720Z,5.9
2018-12-02T00:15:07.440Z,6.2
2018-12-02T00:15:14.194Z,6.2
2018-12-02T00:15:20.955Z,6
2018-12-02T00:15:27.654Z,5.7
2018-12-02T00:15:34.333Z,5.4
2018-12-02T00:15:42.092Z,6.6
2018-12-02T00:15:49.877Z,6.5
2018-12-02T00:15:58.609Z,6.4
2018-12-02T00:16:05.289Z,7.1
2018-12-02T00:16:11.993Z,5.9
2018-12-02T00:16:18.687Z,5.8
2018-12-02T00:16:25.371Z,6
2018-12-02T00:16:32.020Z,4.6
2018-12-02T00:16:38.690Z,5.4
2018-12-02T00:16:45.361Z,5.7
2018-12-02T00:16:52.049Z,6.3
2018-12-02T00:16:58.743Z,6.8
2018-12-02T00:17:05.420Z,6.6
2018-12-02T00:17:12.089Z,6.3
2018-12-02T00:17:18.773Z,6.7
2018-12-02T00:17:26.459Z,6.2
2018-12-02T00:17:33.154Z,5.5
2018-12-02T00:17:39.847Z,5.1
2018-12-02T00:17:46.539Z,5.1
2018-12-02T00:17:53.225Z,5.2
2018-12-02T00:17:59.871Z,5.4
2018-12-02T00:18:06.542Z,5.5
2018-12-02T00:18:13.252Z,5.9
2018-12-02T00:18:19.917Z,5.5
2018-12-02T00:18:26.609Z,5.4
2018-12-02T00:18:33.252Z,5.5
2018-12-02T00:18:39.903Z,4.9
2018-12-02T00:18:47.643Z,5.4
2018-12-02T00:18:54.371Z,5.1
2018-12-02T00:19:02.042Z,5.1
2018-12-02T00:19:09.806Z,5.1
2018-12-02T00:19:16.554Z,5.1
2018-12-02T00:19:23.259Z,5
2018-12-02T00:19:29.957Z,4.8
2018-12-02T00:19:36.732Z,4.2
2018-12-02T00:19:45.436Z,4.9
2018-12-02T00:19:52.143Z,4.1
2018-12-02T00:19:58.832Z,4.3
2018-12-02T00:20:05.477Z,4.9
2018-12-02T00:20:12.156Z,4.3
2018-12-02T00:20:18.839Z,4.2
2018-12-02T00:20:25.508Z,4.3
2018-12-02T00:20:32.162Z,4.2
2018-12-02T00:20:38.828Z,3.9
2018-12-02T00:20:45.519Z,4
2018-12-02T00:20:52.184Z,4.6
2018-12-02T00:20:58.850Z,4.7
2018-12-02T00:21:05.528Z,4.7
2018-12-02T00:21:12.199Z,4.7
2018-12-02T00:21:18.835Z,4
2018-12-02T00:21:25.467Z,4.3
2018-12-02T00:21:32.146Z,4.1
2018-12-02T00:21:38.836Z,4.6
2018-12-02T00:21:45.501Z,4.7
2018-12-02T00:21:52.216Z,5.2
2018-12-02T00:21:58.944Z,5.1
2018-12-02T00:22:05.702Z,5
2018-12-02T00:22:12.420Z,5
2018-12-02T00:22:20.158Z,4.5
2018-12-02T00:22:26.926Z,4.8
2018-12-02T00:22:33.651Z,4.5
2018-12-02T00:22:40.427Z,5.5
2018-12-02T00:22:48.233Z,5.4
2018-12-02T00:22:55.983Z,4.6
2018-12-02T00:23:02.644Z,5.1
2018-12-02T00:23:09.430Z,4.5
2018-12-02T00:23:16.169Z,4.4
2018-12-02T00:23:22.893Z,4.7
2018-12-02T00:23:31.631Z,4.2
2018-12-02T00:23:38.294Z,3.9
2018-12-02T00:23:45.002Z,4.1
2018-12-02T00:23:51.643Z,4.4
2018-12-02T00:23:58.295Z,4.2
2018-12-02T00:24:04.959Z,4.2
2018-12-02T00:24:11.629Z,3.9
2018-12-02T00:24:18.297Z,3.3
2018-12-02T00:24:24.954Z,3.3
2018-12-02T00:24:31.647Z,3.4
2018-12-02T00:24:38.301Z,3.4
2018-12-02T00:24:44.981Z,3.6
2018-12-02T00:24:51.652Z,3.6
2018-12-02T00:24:58.291Z,3.5
2018-12-02T00:25:04.924Z,3.9
2018-12-02T00:25:11.659Z,4
2018-12-02T00:25:18.361Z,4.3
2018-12-02T00:25:25.040Z,4.7
2018-12-02T00:25:31.734Z,4.4
2018-12-02T00:25:38.397Z,4.1
2018-12-02T00:25:45.051Z,4
2018-12-02T00:25:51.704Z,3.9
2018-12-02T00:25:58.412Z,3.8
2018-12-02T00:26:05.110Z,3.9
2018-12-02T00:26:11.768Z,3.9
2018-12-02T00:26:18.470Z,4.7
2018-12-02T00:26:25.127Z,4.8
2018-12-02T00:26:31.818Z,5.3
2018-12-02T00:26:38.466Z,5.6
2018-12-02T00:26:45.120Z,4.9
2018-12-02T00:26:52.896Z,5.7
2018-12-02T00:26:59.556Z,5.3
2018-12-02T00:27:07.269Z,5.1
2018-12-02T00:27:13.939Z,4.8
2018-12-02T00:27:20.616Z,3.9
2018-12-02T00:27:27.326Z,4.1
2018-12-02T00:27:33.970Z,3.9
2018-12-02T00:27:40.638Z,4
2018-12-02T00:27:47.286Z,4.7
2018-12-02T00:27:53.966Z,4.7
2018-12-02T00:28:00.628Z,4.6
2018-12-02T00:28:07.288Z,5.9
2018-12-02T00:28:13.977Z,5.9
2018-12-02T00:28:21.634Z,5.4
2018-12-02T00:28:28.283Z,5.4
2018-12-02T00:28:35.008Z,4.4
2018-12-02T00:28:41.667Z,4.6
2018-12-02T00:28:48.350Z,4.7
2018-12-02T00:28:56.066Z,5
2018-12-02T00:29:02.739Z,4.8
2018-12-02T00:29:09.388Z,4.3
2018-12-02T00:29:16.099Z,4.4
2018-12-02T00:29:22.814Z,4.1
2018-12-02T00:29:29.485Z,4.3
2018-12-02T00:29:36.132Z,5.1
2018-12-02T00:29:42.758Z,4.6
2018-12-02T00:29:49.451Z,4.9
2018-12-02T00:29:56.127Z,4.9
2018-12-02T00:30:02.834Z,5.2
2018-12-02T00:30:09.522Z,5.2
2018-12-02T00:30:16.201Z,5.6
2018-12-02T00:30:22.853Z,5.4
2018-12-02T00:30:29.537Z,5
2018-12-02T00:30:36.213Z,4.2
2018-12-02T00:30:42.884Z,3.9
2018-12-02T00:30:49.580Z,3.8
2018-12-02T00:30:56.215Z,3.4
2018-12-02T00:31:02.893Z,3.6
2018-12-02T00:31:09.552Z,4.2
2018-12-02T00:31:16.250Z,4.2
2018-12-02T00:31:22.940Z,4.1
2018-12-02T00:31:30.548Z,4.2
2018-12-02T00:31:37.197Z,4.4
2018-12-02T00:31:43.856Z,5
2018-12-02T00:31:50.519Z,5.5
2018-12-02T00:31:57.267Z,5.5
2018-12-02T00:32:03.913Z,5.2
2018-12-02T00:32:10.555Z,4.1
2018-12-02T00:32:18.231Z,3.3
2018-12-02T00:32:24.894Z,3.4
2018-12-02T00:32:31.563Z,3.4
2018-12-02T00:32:38.231Z,3.8
2018-12-02T00:32:44.869Z,4
2018-12-02T00:32:51.524Z,3.9
2018-12-02T00:32:58.166Z,4.3
2018-12-02T00:33:04.803Z,4.2
2018-12-02T00:33:11.505Z,4.4
2018-12-02T00:33:18.191Z,4
2018-12-02T00:33:24.879Z,3.9
2018-12-02T00:33:31.543Z,4.4
2018-12-02T00:33:38.214Z,3.7
2018-12-02T00:33:44.919Z,3.6
2018-12-02T00:33:51.566Z,3.7
2018-12-02T00:33:58.265Z,3.5
2018-12-02T00:34:04.930Z,3.9
2018-12-02T00:34:11.595Z,4.1
2018-12-02T00:34:18.290Z,4.6
2018-12-02T00:34:24.944Z,4.6
2018-12-02T00:34:31.579Z,4.7
2018-12-02T00:34:38.236Z,4.3
2018-12-02T00:34:44.875Z,4.8
2018-12-02T00:34:51.528Z,4.3
2018-12-02T00:34:58.189Z,4.2
2018-12-02T00:35:04.842Z,4.1
2018-12-02T00:35:11.517Z,4.8
2018-12-02T00:35:18.242Z,4.8
2018-12-02T00:35:24.887Z,5.4
2018-12-02T00:35:31.529Z,5.6
2018-12-02T00:35:38.220Z,5.4
2018-12-02T00:35:44.876Z,5.5
2018-12-02T00:35:51.519Z,5.6
2018-12-02T00:35:58.158Z,5.2
2018-12-02T00:36:04.849Z,5.1
2018-12-02T00:36:11.544Z,5.2
2018-12-02T00:36:19.248Z,3.9
2018-12-02T00:36:26.019Z,4
2018-12-02T00:36:32.729Z,4
2018-12-02T00:36:39.491Z,4.2
2018-12-02T00:36:47.186Z,4.9
2018-12-02T00:36:53.975Z,4.7
2018-12-02T00:37:00.690Z,4.5
2018-12-02T00:37:07.421Z,4.4
2018-12-02T00:37:14.120Z,3.8
2018-12-02T00:37:20.847Z,4.1
2018-12-02T00:37:28.550Z,4.4
2018-12-02T00:37:36.269Z,4
2018-12-02T00:37:43.011Z,4.6
2018-12-02T00:37:49.685Z,4.1
2018-12-02T00:37:56.359Z,3.7
2018-12-02T00:38:03.052Z,3.7
2018-12-02T00:38:09.714Z,3.7
2018-12-02T00:38:16.412Z,3.3
2018-12-02T00:38:24.043Z,3.4
2018-12-02T00:38:30.709Z,3.5
2018-12-02T00:38:37.363Z,3.4
2018-12-02T00:38:44.029Z,3.4
2018-12-02T00:38:50.666Z,3.4
2018-12-02T00:38:57.361Z,3.4
2018-12-02T00:39:04.000Z,3.8
2018-12-02T00:39:10.674Z,4.2
2018-12-02T00:39:18.397Z,4.5
2018-12-02T00:39:25.047Z,4.9
2018-12-02T00:39:31.704Z,4.1
2018-12-02T00:39:38.392Z,3.8
2018-12-02T00:39:45.082Z,3.7
2018-12-02T00:39:51.746Z,3.4
2018-12-02T00:39:58.468Z,3.6
2018-12-02T00:40:05.102Z,3.7
2018-12-02T00:40:11.870Z,3.7
2018-12-02T00:40:18.647Z,3.3
2018-12-02T00:40:25.356Z,3.6
2018-12-02T00:40:32.050Z,3.8
2018-12-02T00:40:38.724Z,4.2
2018-12-02T00:40:45.428Z,4.5
2018-12-02T00:40:52.131Z,4.7
2018-12-02T00:40:59.793Z,4.8
2018-12-02T00:41:06.492Z,4.3
2018-12-02T00:41:14.196Z,5.1
2018-12-02T00:41:20.900Z,4.8
2018-12-02T00:41:27.641Z,5.1
2018-12-02T00:41:34.316Z,5
2018-12-02T00:41:40.970Z,4.3
2018-12-02T00:41:47.661Z,3.7
2018-12-02T00:41:54.363Z,3.5
2018-12-02T00:42:01.024Z,3.3
2018-12-02T00:42:07.703Z,3.3
2018-12-02T00:42:14.372Z,3.5
2018-12-02T00:42:21.058Z,3.7
2018-12-02T00:42:27.678Z,3.6
2018-12-02T00:42:34.384Z,4.2
2018-12-02T00:42:41.061Z,3.7
2018-12-02T00:42:47.753Z,3.8
2018-12-02T00:42:54.427Z,4.3
2018-12-02T00:43:02.088Z,3.8
2018-12-02T00:43:08.745Z,3.7
2018-12-02T00:43:15.424Z,3.7
2018-12-02T00:43:22.075Z,3.4
2018-12-02T00:43:28.744Z,3.4
2018-12-02T00:43:35.387Z,3.3
2018-12-02T00:43:42.073Z,3.4
2018-12-02T00:43:48.724Z,3.4
2018-12-02T00:43:55.420Z,3.4
2018-12-02T00:44:03.096Z,3.5
2018-12-02T00:44:09.789Z,3.5
2018-12-02T00:44:16.466Z,3.3
2018-12-02T00:44:23.136Z,3.3
2018-12-02T00:44:29.792Z,3.3
2018-12-02T00:44:36.481Z,3.5
2018-12-02T00:44:43.199Z,4.2
2018-12-02T00:44:49.890Z,4.6
2018-12-02T00:44:56.556Z,4.7
2018-12-02T00:45:03.204Z,4.6
2018-12-02T00:45:09.873Z,3.8
2018-12-02T00:45:16.547Z,3.6
2018-12-02T00:45:23.170Z,3.6
2018-12-02T00:45:29.837Z,3.9
2018-12-02T00:45:36.508Z,4.6
2018-12-02T00:45:43.192Z,4.7
2018-12-02T00:45:49.834Z,4.8
2018-12-02T00:45:56.533Z,5.2
2018-12-02T00:46:03.232Z,4.5
2018-12-02T00:46:10.902Z,4.1
2018-12-02T00:46:18.566Z,4.3
2018-12-02T00:46:25.223Z,3.9
2018-12-02T00:46:31.852Z,4.4
2018-12-02T00:46:38.547Z,4.7
2018-12-02T00:46:45.229Z,4.9
2018-12-02T00:46:51.895Z,4.4
2018-12-02T00:46:59.618Z,4
2018-12-02T00:47:07.325Z,4
2018-12-02T00:47:14.071Z,3.8
2018-12-02T00:47:20.770Z,4.2
2018-12-02T00:47:27.506Z,4.2
2018-12-02T00:47:34.267Z,4.5
2018-12-02T00:47:41.017Z,4.6
2018-12-02T00:47:47.755Z,4.7
2018-12-02T00:47:54.459Z,4.3
2018-12-02T00:48:02.239Z,4.1
2018-12-02T00:48:09.987Z,4.7
2018-12-02T00:48:16.717Z,4.3
2018-12-02T00:48:24.463Z,4.3
2018-12-02T00:48:31.188Z,4.6
2018-12-02T00:48:37.948Z,4.4
2018-12-02T00:48:44.633Z,4.1
2018-12-02T00:48:51.291Z,4.1
2018-12-02T00:48:57.975Z,3.7
2018-12-02T00:49:04.653Z,4
2018-12-02T00:49:11.293Z,3.5
2018-12-02T00:49:17.972Z,3.6
2018-12-02T00:49:24.690Z,3.3
2018-12-02T00:49:31.341Z,3.3
2018-12-02T00:49:38.997Z,3.7
2018-12-02T00:49:45.690Z,3.9
2018-12-02T00:49:52.341Z,4.1
2018-12-02T00:49:59.034Z,4.4
2018-12-02T00:50:05.704Z,4.3
2018-12-02T00:50:12.410Z,4.1
2018-12-02T00:50:19.096Z,3.7
2018-12-02T00:50:25.752Z,3.5
2018-12-02T00:50:32.431Z,3.4
2018-12-02T00:50:39.149Z,3.3
2018-12-02T00:50:45.904Z,3.5
2018-12-02T00:50:52.661Z,3.6
2018-12-02T00:50:59.391Z,3.8
2018-12-02T00:51:06.090Z,3.8
2018-12-02T00:51:12.765Z,3.8
2018-12-02T00:51:19.495Z,3.8
2018-12-02T00:51:26.211Z,3.7
2018-12-02T00:51:32.936Z,3.6
2018-12-02T00:51:40.674Z,3.7
2018-12-02T00:51:47.393Z,3.3
2018-12-02T00:51:54.119Z,3.3
2018-12-02T00:52:00.933Z,3.4
2018-12-02T00:52:07.681Z,3.5
2018-12-02T00:52:15.355Z,3.5
2018-12-02T00:52:22.034Z,4.2
2018-12-02T00:52:28.680Z,4.5
2018-12-02T00:52:35.378Z,3.8
2018-12-02T00:52:42.036Z,3.8
2018-12-02T00:52:49.674Z,3.6
2018-12-02T00:52:56.334Z,3.4
2018-12-02T00:53:02.975Z,3.4
2018-12-02T00:53:09.639Z,3.7
2018-12-02T00:53:16.332Z,4.2
2018-12-02T00:53:22.994Z,4.3
2018-12-02T00:53:29.658Z,4.6
2018-12-02T00:53:36.346Z,5.1
2018-12-02T00:53:43.093Z,5.2
2018-12-02T00:53:50.740Z,5.3
2018-12-02T00:53:57.371Z,4.8
2018-12-02T00:54:04.024Z,3.9
2018-12-02T00:54:10.707Z,4
2018-12-02T00:54:17.383Z,3.4
2018-12-02T00:54:24.093Z,3.3
2018-12-02T00:54:30.761Z,3.9
2018-12-02T00:54:37.447Z,3.8
2018-12-02T00:54:44.122Z,4.2
2018-12-02T00:54:50.774Z,4.6
2018-12-02T00:54:58.468Z,4.8
2018-12-02T00:55:07.225Z,4.4
2018-12-02T00:55:13.907Z,4.3
2018-12-02T00:55:20.652Z,4.4
2018-12-02T00:55:27.322Z,4.8
2018-12-02T00:55:34.038Z,4.8
2018-12-02T00:55:40.688Z,4.8
2018-12-02T00:55:47.375Z,4.5
2018-12-02T00:55:55.019Z,4.4
2018-12-02T00:56:01.743Z,4.3
2018-12-02T00:56:08.401Z,4
2018-12-02T00:56:15.084Z,3.7
2018-12-02T00:56:22.752Z,4.1
2018-12-02T00:56:29.408Z,4.5
2018-12-02T00:56:36.081Z,5.1
2018-12-02T00:56:42.724Z,5.6
2018-12-02T00:56:49.397Z,5.3
2018-12-02T00:56:56.051Z,4.8
2018-12-02T00:57:02.743Z,4.7
2018-12-02T00:57:09.394Z,4.3
2018-12-02T00:57:16.057Z,3.8
2018-12-02T00:57:22.714Z,4
2018-12-02T00:57:29.362Z,4.8
2018-12-02T00:57:36.051Z,4.5
2018-12-02T00:57:42.681Z,4.8
2018-12-02T00:57:49.349Z,4.4
2018-12-02T00:57:56.033Z,4.7
2018-12-02T00:58:03.730Z,4.1
2018-12-02T00:58:10.459Z,4.3
2018-12-02T00:58:18.168Z,4.6
2018-12-02T00:58:24.909Z,4.7
2018-12-02T00:58:31.635Z,4.6
2018-12-02T00:58:38.357Z,4.6
2018-12-02T00:58:45.041Z,4.1
2018-12-02T00:58:51.794Z,4.5
2018-12-02T00:58:58.477Z,4.2
2018-12-02T00:59:05.262Z,4.5
2018-12-02T00:59:12.019Z,5
2018-12-02T00:59:18.726Z,5
2018-12-02T00:59:25.374Z,4.9
2018-12-02T00:59:32.051Z,5.2
2018-12-02T00:59:38.712Z,4.5
2018-12-02T00:59:46.367Z,4.5
2018-12-02T00:59:53.015Z,4.8
2018-12-02T00:59:59.701Z,4.3
2018-12-02T01:00:06.389Z,4.2
2018-12-02T01:00:13.048Z,4.6
2018-12-02T01:00:19.708Z,4.6
2018-12-02T01:00:26.380Z,5.1
2018-12-02T01:00:33.058Z,5.3
2018-12-02T01:00:39.696Z,4.6
2018-12-02T01:00:46.389Z,5.1
2018-12-02T01:00:53.043Z,4.5
2018-12-02T01:01:00.776Z,4.6
2018-12-02T01:01:07.445Z,4.1
2018-12-02T01:01:14.083Z,4.2
2018-12-02T01:01:20.761Z,3.5
2018-12-02T01:01:27.419Z,3.5
2018-12-02T01:01:34.095Z,4.1
2018-12-02T01:01:40.759Z,5.9
2018-12-02T01:01:47.436Z,6.1
2018-12-02T01:01:54.138Z,6.4
2018-12-02T01:02:00.865Z,6.2
2018-12-02T01:02:07.566Z,6
2018-12-02T01:02:14.281Z,4.9
2018-12-02T01:02:20.992Z,4.7
2018-12-02T01:02:29.150Z,4.7
2018-12-02T01:02:35.872Z,4.1
2018-12-02T01:02:42.579Z,3.8
2018-12-02T01:02:49.297Z,4
2018-12-02T01:02:55.988Z,4.3
2018-12-02T01:03:02.683Z,4.2
2018-12-02T01:03:09.330Z,4.9
2018-12-02T01:03:16.026Z,4.8
2018-12-02T01:03:22.703Z,4.2
2018-12-02T01:03:29.369Z,4.5
2018-12-02T01:03:36.047Z,4.1
2018-12-02T01:03:42.688Z,4.3
2018-12-02T01:03:49.378Z,4.4
2018-12-02T01:03:56.022Z,4.9
2018-12-02T01:04:02.674Z,4.7
2018-12-02T01:04:09.342Z,4.8
2018-12-02T01:04:16.000Z,4.5
2018-12-02T01:04:22.647Z,4.4
2018-12-02T01:04:29.346Z,4.7
2018-12-02T01:04:35.994Z,4.8
2018-12-02T01:04:42.643Z,4.3
2018-12-02T01:04:49.320Z,4.6
2018-12-02T01:04:55.991Z,5.1
2018-12-02T01:05:02.686Z,4.8
2018-12-02T01:05:10.371Z,4.6
2018-12-02T01:05:18.058Z,4.7
2018-12-02T01:05:24.776Z,4.1
2018-12-02T01:05:31.530Z,3.9
2018-12-02T01:05:38.277Z,4.2
2018-12-02T01:05:44.999Z,4.3
2018-12-02T01:05:53.692Z,4.4
2018-12-02T01:06:00.422Z,4.6
2018-12-02T01:06:07.107Z,5
2018-12-02T01:06:14.139Z,5.5
2018-12-02T01:06:20.546Z,5.4
2018-12-02T01:06:28.277Z,6.5
2018-12-02T01:06:34.986Z,6.3
2018-12-02T01:06:41.646Z,5.4
2018-12-02T01:06:53.396Z,5.5
2018-12-02T01:06:57.977Z,4.6
2018-12-02T01:07:04.657Z,3.9
2018-12-02T01:07:11.319Z,4.4
2018-12-02T01:07:17.972Z,4.1
2018-12-02T01:07:24.614Z,4.7
2018-12-02T01:07:31.313Z,5.6
2018-12-02T01:07:37.958Z,5.6
2018-12-02T01:07:44.610Z,6.3
2018-12-02T01:07:51.281Z,6.1
2018-12-02T01:07:57.970Z,5.4
2018-12-02T01:08:04.626Z,5.1
2018-12-02T01:08:11.271Z,5.2
2018-12-02T01:08:17.949Z,4.9
2018-12-02T01:08:24.688Z,5.1
2018-12-02T01:08:31.344Z,5.1
2018-12-02T01:08:38.035Z,5.6
2018-12-02T01:08:44.734Z,5.9
2018-12-02T01:08:51.385Z,5.2
2018-12-02T01:08:58.076Z,6.1
2018-12-02T01:09:04.776Z,5.9
2018-12-02T01:09:11.439Z,5.4
2018-12-02T01:09:19.202Z,5.5
2018-12-02T01:09:25.866Z,5.3
2018-12-02T01:09:32.579Z,4.7
2018-12-02T01:09:39.369Z,4.1
2018-12-02T01:09:47.051Z,4.2
2018-12-02T01:09:53.773Z,4.1
2018-12-02T01:10:00.508Z,4.3
2018-12-02T01:10:07.242Z,4.9
2018-12-02T01:10:13.955Z,4.6
2018-12-02T01:10:20.640Z,4.7
2018-12-02T01:10:27.338Z,4.8
2018-12-02T01:10:33.993Z,4.7
2018-12-02T01:10:40.669Z,4.1
2018-12-02T01:10:47.382Z,4.4
2018-12-02T01:10:54.201Z,4
2018-12-02T01:11:00.888Z,4.4
2018-12-02T01:11:07.543Z,4.2
2018-12-02T01:11:14.225Z,4.1
2018-12-02T01:11:20.890Z,4.3
2018-12-02T01:11:27.586Z,4.5
2018-12-02T01:11:34.264Z,4.4
2018-12-02T01:11:40.963Z,5.2
2018-12-02T01:11:47.605Z,5.5
2018-12-02T01:11:54.268Z,5.6
2018-12-02T01:12:00.963Z,5.7
2018-12-02T01:12:07.616Z,6.4
2018-12-02T01:12:14.278Z,6.2
2018-12-02T01:12:20.980Z,5.9
2018-12-02T01:12:27.639Z,5.5
2018-12-02T01:12:34.288Z,5.2
2018-12-02T01:12:40.982Z,4.1
2018-12-02T01:12:47.669Z,4.5
2018-12-02T01:12:54.309Z,4.3
2018-12-02T01:13:00.957Z,4.1
2018-12-02T01:13:07.686Z,3.8
2018-12-02T01:13:14.544Z,3.8
2018-12-02T01:13:21.269Z,4.3
2018-12-02T01:13:27.968Z,4.4
2018-12-02T01:13:35.719Z,5.2
2018-12-02T01:13:42.575Z,5.2
2018-12-02T01:13:49.314Z,5.1
2018-12-02T01:13:55.974Z,5.7
2018-12-02T01:14:02.827Z,5.3
2018-12-02T01:14:09.492Z,5.8
2018-12-02T01:14:16.190Z,6.6
2018-12-02T01:14:22.860Z,5.8
2018-12-02T01:14:29.571Z,5.4
2018-12-02T01:14:36.236Z,5
2018-12-02T01:14:42.937Z,5.2
2018-12-02T01:14:49.589Z,4.8
2018-12-02T01:14:57.274Z,5
2018-12-02T01:15:03.933Z,5
2018-12-02T01:15:10.638Z,5.1
2018-12-02T01:15:17.329Z,4.8
2018-12-02T01:15:23.981Z,4.8
2018-12-02T01:15:30.679Z,4.7
2018-12-02T01:15:37.369Z,4.5
2018-12-02T01:15:44.079Z,4.7
2018-12-02T01:15:50.751Z,4.5
2018-12-02T01:15:57.407Z,4.9
2018-12-02T01:16:04.153Z,5.4
2018-12-02T01:16:10.938Z,5.6
2018-12-02T01:16:17.686Z,5.4
2018-12-02T01:16:24.401Z,6.2
2018-12-02T01:16:31.165Z,5.8
2018-12-02T01:16:37.950Z,5.8
2018-12-02T01:16:44.686Z,5.9
2018-12-02T01:16:51.415Z,5.1
2018-12-02T01:16:58.167Z,5
2018-12-02T01:17:05.874Z,5
2018-12-02T01:17:12.599Z,6
2018-12-02T01:17:19.368Z,5.8
2018-12-02T01:17:26.040Z,5.8
2018-12-02T01:17:32.682Z,5.4
2018-12-02T01:17:39.339Z,5.3
2018-12-02T01:17:46.036Z,5.6
2018-12-02T01:17:52.749Z,5.7
2018-12-02T01:17:59.623Z,5.7
2018-12-02T01:18:06.310Z,6
2018-12-02T01:18:12.977Z,6
2018-12-02T01:18:19.697Z,6.5
2018-12-02T01:18:27.314Z,6.9
2018-12-02T01:18:34.005Z,6.7
2018-12-02T01:18:40.690Z,6.1
2018-12-02T01:18:47.333Z,5.8
2018-12-02T01:18:53.986Z,6.5
2018-12-02T01:19:00.617Z,6.1
2018-12-02T01:19:07.305Z,5.6
2018-12-02T01:19:13.972Z,5.3
2018-12-02T01:19:20.634Z,6.4
2018-12-02T01:19:27.401Z,6.1
2018-12-02T01:19:34.097Z,6.2
2018-12-02T01:19:40.847Z,6.5
2018-12-02T01:19:48.567Z,7.2
2018-12-02T01:19:55.282Z,6.7
2018-12-02T01:20:02.034Z,6.6
2018-12-02T01:20:09.945Z,7.1
2018-12-02T01:20:16.706Z,7.2
2018-12-02T01:20:23.419Z,7
2018-12-02T01:20:30.205Z,7
2018-12-02T01:20:36.951Z,6.4
2018-12-02T01:20:44.944Z,5.7
2018-12-02T01:20:51.671Z,6.4
2018-12-02T01:20:58.325Z,6
2018-12-02T01:21:05.005Z,5.9
2018-12-02T01:21:11.673Z,6.2
2018-12-02T01:21:18.333Z,5.4
2018-12-02T01:21:25.999Z,4.7
2018-12-02T01:21:32.722Z,4.3
2018-12-02T01:21:39.374Z,3.9
2018-12-02T01:21:46.092Z,4
2018-12-02T01:21:53.771Z,4
2018-12-02T01:22:00.501Z,4.2
2018-12-02T01:22:07.158Z,4.4
2018-12-02T01:22:13.974Z,4.4
2018-12-02T01:22:20.605Z,4.5
2018-12-02T01:22:27.368Z,4.4
2018-12-02T01:22:34.135Z,5.2
2018-12-02T01:22:40.757Z,4.9
2018-12-02T01:22:47.420Z,5.2
2018-12-02T01:22:54.116Z,5.6
2018-12-02T01:23:00.812Z,6.6
2018-12-02T01:23:08.470Z,6.6
2018-12-02T01:23:16.082Z,6.7
2018-12-02T01:23:22.802Z,6.3
2018-12-02T01:23:29.499Z,4.6
2018-12-02T01:23:36.199Z,4.5
2018-12-02T01:23:42.939Z,4.8
2018-12-02T01:23:50.690Z,5.3
2018-12-02T01:23:57.439Z,5.1
2018-12-02T01:24:05.266Z,5.1
2018-12-02T01:24:11.953Z,5.4
2018-12-02T01:24:18.690Z,5.2
2018-12-02T01:24:25.450Z,4.8
2018-12-02T01:24:32.130Z,4.5
2018-12-02T01:24:39.800Z,4.7
2018-12-02T01:24:46.468Z,5
2018-12-02T01:24:53.118Z,5
2018-12-02T01:25:00.795Z,5.2
2018-12-02T01:25:07.483Z,5.5
2018-12-02T01:25:14.139Z,5.4
2018-12-02T01:25:20.808Z,5.3
2018-12-02T01:25:27.516Z,6
2018-12-02T01:25:34.219Z,6.5
2018-12-02T01:25:40.930Z,6.5
2018-12-02T01:25:47.597Z,5.4
2018-12-02T01:25:54.281Z,5.2
2018-12-02T01:26:00.965Z,5.3
2018-12-02T01:26:07.685Z,4.9
2018-12-02T01:26:14.376Z,5.1
2018-12-02T01:26:21.082Z,5.2
2018-12-02T01:26:27.784Z,6.5
2018-12-02T01:26:34.494Z,6.5
2018-12-02T01:26:41.141Z,5.6
2018-12-02T01:26:49.876Z,5.9
2018-12-02T01:26:56.655Z,4.9
2018-12-02T01:27:03.389Z,4.4
2018-12-02T01:27:10.114Z,4.8
2018-12-02T01:27:17.972Z,5.4
2018-12-02T01:27:25.688Z,6
2018-12-02T01:27:32.404Z,6.1
2018-12-02T01:27:39.117Z,5.6
2018-12-02T01:27:45.825Z,5
2018-12-02T01:27:52.555Z,4.5
2018-12-02T01:27:59.296Z,4.4
2018-12-02T01:28:06.007Z,4.8
2018-12-02T01:28:12.700Z,4.6
2018-12-02T01:28:19.371Z,4.7
2018-12-02T01:28:26.072Z,4.7
2018-12-02T01:28:32.746Z,5.4
2018-12-02T01:28:39.407Z,6.2
2018-12-02T01:28:46.040Z,6.6
2018-12-02T01:28:52.694Z,7.3
2018-12-02T01:28:59.435Z,6.9
2018-12-02T01:29:06.296Z,5
2018-12-02T01:29:13.091Z,5.7
2018-12-02T01:29:19.873Z,5.8
2018-12-02T01:29:26.659Z,5
2018-12-02T01:29:33.315Z,6.3
2018-12-02T01:29:39.983Z,5.8
2018-12-02T01:29:46.648Z,5.1
2018-12-02T01:29:53.334Z,5.3
2018-12-02T01:30:00.054Z,5
2018-12-02T01:30:06.809Z,4.6
2018-12-02T01:30:13.561Z,5.1
2018-12-02T01:30:20.344Z,5
2018-12-02T01:30:27.055Z,5.1
2018-12-02T01:30:33.793Z,5.6
2018-12-02T01:30:40.546Z,5.4
2018-12-02T01:30:48.272Z,5.9
2018-12-02T01:30:55.087Z,5.1
2018-12-02T01:31:01.783Z,5.4
2018-12-02T01:31:09.438Z,4.5
2018-12-02T01:31:17.138Z,4.5
2018-12-02T01:31:23.841Z,4.7
2018-12-02T01:31:31.563Z,5.5
2018-12-02T01:31:38.212Z,5.9
2018-12-02T01:31:44.885Z,5.6
2018-12-02T01:31:51.753Z,5.7
2018-12-02T01:31:59.438Z,5.4
2018-12-02T01:32:06.129Z,5.1
2018-12-02T01:32:12.801Z,4.8
2018-12-02T01:32:19.458Z,4.3
2018-12-02T01:32:26.215Z,4.4
2018-12-02T01:32:32.884Z,4.3
2018-12-02T01:32:40.704Z,4.7
2018-12-02T01:32:47.396Z,5.3
2018-12-02T01:32:54.053Z,5.2
2018-12-02T01:33:00.707Z,5.4
2018-12-02T01:33:07.372Z,4.6
2018-12-02T01:33:14.039Z,3.8
2018-12-02T01:33:20.706Z,3.9
2018-12-02T01:33:27.411Z,4
2018-12-02T01:33:34.071Z,4.1
2018-12-02T01:33:40.753Z,3.8
2018-12-02T01:33:47.408Z,4.4
2018-12-02T01:33:54.092Z,4.5
2018-12-02T01:34:01.740Z,4.4
2018-12-02T01:34:08.461Z,4.9
2018-12-02T01:34:15.242Z,4.9
2018-12-02T01:34:22.001Z,4.8
2018-12-02T01:34:28.744Z,5
2018-12-02T01:34:35.467Z,4.8